Norfolk, Virginia
Traffic Map
Current Weather Conditions
Norfolk, Virginia
Few Clouds
Few Clouds
93°
Feels Like: 99°
Wind Chill: 93° Ceiling: Unl
Heat Index: 99° Visibility: 10mi
Dew Point: 70° Wind: 13mph
Humidity: 47% Direction: 200° (SSW)
Pressure: 29.97in Gusts: 0mph
Raw Report DataKORF 012051Z AUTO 20011KT 10SM FEW050 FEW065 34/21 A2997 RMK AO2 SLP147 T03390211 56017 TSNO
Traffic Incident Summary
Active as of:
Severity:
Category:
InformationThere was an issue retrieving the traffic information for this location. Please try a different location or try again shortly.
Advertisements
Track Severe Weather on mobile